createdAt,value
2022-09-03T00:00:56.250Z,68.41
2022-09-03T00:03:41.540Z,68.57
2022-09-03T00:06:27.261Z,68.91
2022-09-03T00:09:14.047Z,68.74
2022-09-03T00:11:55.979Z,68.85
2022-09-03T00:14:34.414Z,68.74
2022-09-03T00:17:09.598Z,68.80
2022-09-03T00:19:44.805Z,69.10
2022-09-03T00:22:43.169Z,68.95
2022-09-03T00:25:14.706Z,69.00
2022-09-03T00:27:45.473Z,68.85
2022-09-03T00:30:17.045Z,69.20
2022-09-03T00:33:09.603Z,69.37
2022-09-03T00:35:54.435Z,69.63
2022-09-03T00:38:22.478Z,69.49
2022-09-03T00:41:06.986Z,69.43
2022-09-03T00:44:05.180Z,69.56
2022-09-03T00:46:50.231Z,69.48
2022-09-03T00:49:33.299Z,69.50
2022-09-03T00:52:23.348Z,69.54
2022-09-03T00:55:24.297Z,70.10
2022-09-03T00:58:03.227Z,70.08
2022-09-03T01:00:30.629Z,70.02
2022-09-03T01:02:57.616Z,69.68
2022-09-03T01:05:55.054Z,69.68
2022-09-03T01:08:32.363Z,69.79
2022-09-03T01:11:18.849Z,70.09
2022-09-03T01:14:13.260Z,69.93
2022-09-03T01:17:03.674Z,70.02
2022-09-03T01:19:53.886Z,70.21
2022-09-03T01:22:39.709Z,70.18
2022-09-03T01:25:41.670Z,70.33
2022-09-03T01:28:39.158Z,70.29
2022-09-03T01:31:31.257Z,70.28
2022-09-03T01:34:07.479Z,70.55
2022-09-03T01:36:49.878Z,70.60
2022-09-03T01:39:28.093Z,71.33
2022-09-03T01:42:20.343Z,71.05
2022-09-03T01:44:52.909Z,71.06
2022-09-03T01:47:42.366Z,71.00
2022-09-03T01:50:15.880Z,71.00
2022-09-03T01:52:52.359Z,71.50
2022-09-03T01:55:48.667Z,71.35
2022-09-03T01:58:24.720Z,71.19
2022-09-03T02:01:00.052Z,71.38
2022-09-03T02:03:36.254Z,71.37
2022-09-03T02:06:10.574Z,71.29
2022-09-03T02:08:38.461Z,71.23
2022-09-03T02:11:09.000Z,71.06
2022-09-03T02:13:39.872Z,71.03
2022-09-03T02:16:17.527Z,71.44
2022-09-03T02:18:52.188Z,71.59
2022-09-03T02:21:21.984Z,71.37
2022-09-03T02:23:49.897Z,71.72
2022-09-03T02:26:21.526Z,71.56
2022-09-03T02:28:49.932Z,71.55
2022-09-03T02:31:17.341Z,71.47
2022-09-03T02:33:47.705Z,71.73
2022-09-03T02:36:18.248Z,71.57
2022-09-03T02:38:46.520Z,71.68
2022-09-03T02:41:14.309Z,71.66
2022-09-03T02:43:44.439Z,71.63
2022-09-03T02:46:18.613Z,71.93
2022-09-03T02:48:45.660Z,72.14
2022-09-03T02:51:14.610Z,71.77
2022-09-03T02:53:43.376Z,71.85
2022-09-03T02:56:10.972Z,72.05
2022-09-03T02:58:38.122Z,71.67
2022-09-03T03:01:06.384Z,72.02
2022-09-03T03:03:34.017Z,71.89
2022-09-03T03:06:04.729Z,71.70
2022-09-03T03:08:34.162Z,71.85
2022-09-03T03:11:02.196Z,71.74
2022-09-03T03:13:31.178Z,71.79
2022-09-03T03:16:03.308Z,71.71
2022-09-03T03:18:30.501Z,72.19
2022-09-03T03:20:57.700Z,71.60
2022-09-03T03:23:24.719Z,71.50
2022-09-03T03:25:51.768Z,72.23
2022-09-03T03:28:20.480Z,73.94
2022-09-03T03:30:48.731Z,73.65
2022-09-03T03:33:16.036Z,71.20
2022-09-03T03:35:43.287Z,68.30
2022-09-03T03:38:10.699Z,63.70
2022-09-03T03:40:39.016Z,57.30
2022-09-03T03:43:06.311Z,53.52
2022-09-03T03:45:33.543Z,49.23
2022-09-03T03:48:00.607Z,45.52
2022-09-03T03:50:28.188Z,42.40
2022-09-03T03:52:55.337Z,40.04
2022-09-03T03:55:23.026Z,37.29
2022-09-03T03:57:53.995Z,34.98
2022-09-03T04:00:21.223Z,33.03
2022-09-03T04:02:51.794Z,31.25
2022-09-03T04:05:19.194Z,30.27
2022-09-03T04:07:50.290Z,30.20
2022-09-03T04:10:17.323Z,31.63
2022-09-03T04:12:44.322Z,33.65
2022-09-03T04:15:11.403Z,35.89
2022-09-03T04:17:39.854Z,38.26
2022-09-03T04:20:07.016Z,40.58
2022-09-03T04:22:34.028Z,42.62
2022-09-03T04:25:00.951Z,44.53
2022-09-03T04:27:28.065Z,46.35
2022-09-03T04:29:55.125Z,47.86
2022-09-03T04:32:40.624Z,48.95
2022-09-03T04:35:08.030Z,50.30
2022-09-03T04:37:35.152Z,51.52
2022-09-03T04:40:02.343Z,51.83
2022-09-03T04:42:30.200Z,53.11
2022-09-03T04:44:57.255Z,53.77
2022-09-03T04:47:24.300Z,54.34
2022-09-03T04:49:51.382Z,54.67
2022-09-03T04:52:19.630Z,55.23
2022-09-03T04:54:46.923Z,55.81
2022-09-03T04:57:14.017Z,55.71
2022-09-03T04:59:41.274Z,56.60
2022-09-03T05:02:10.141Z,56.82
2022-09-03T05:04:37.464Z,57.25
2022-09-03T05:07:04.590Z,57.48
2022-09-03T05:09:31.555Z,58.04
2022-09-03T05:11:58.548Z,57.97
2022-09-03T05:14:25.607Z,58.11
2022-09-03T05:16:53.452Z,58.53
2022-09-03T05:19:20.593Z,58.63
2022-09-03T05:21:47.618Z,59.03
2022-09-03T05:24:15.457Z,59.65
2022-09-03T05:26:42.498Z,60.13
2022-09-03T05:29:09.652Z,59.57
2022-09-03T05:31:39.466Z,59.69
2022-09-03T05:34:08.099Z,59.92
2022-09-03T05:36:37.676Z,59.72
2022-09-03T05:39:05.564Z,53.11
2022-09-03T05:41:34.323Z,44.84
2022-09-03T05:44:02.355Z,38.36
2022-09-03T05:46:32.655Z,32.00
2022-09-03T05:49:07.019Z,29.13
2022-09-03T05:51:35.910Z,28.19
2022-09-03T05:54:04.083Z,27.22
2022-09-03T05:56:32.949Z,27.04
2022-09-03T05:59:05.671Z,26.48
2022-09-03T06:01:35.452Z,24.98
2022-09-03T06:04:05.324Z,23.22
2022-09-03T06:06:35.842Z,21.34
2022-09-03T06:09:06.068Z,19.84
2022-09-03T06:11:37.665Z,18.74
2022-09-03T06:14:08.288Z,17.65
2022-09-03T06:16:43.522Z,16.81
2022-09-03T06:19:11.897Z,16.46
2022-09-03T06:21:42.909Z,15.98
2022-09-03T06:24:12.275Z,15.21
2022-09-03T06:26:40.265Z,14.17
2022-09-03T06:29:10.781Z,13.97
2022-09-03T06:31:38.053Z,13.81
2022-09-03T06:34:06.161Z,13.40
2022-09-03T06:36:33.635Z,12.38
2022-09-03T06:39:01.212Z,11.93
2022-09-03T06:41:32.896Z,10.93
2022-09-03T06:44:03.552Z,10.60
2022-09-03T06:46:33.035Z,10.08
2022-09-03T06:49:00.590Z,9.75
2022-09-03T06:51:30.466Z,9.85
2022-09-03T06:54:02.924Z,9.98
2022-09-03T06:56:33.029Z,10.12
2022-09-03T06:59:06.786Z,10.49
2022-09-03T07:01:34.874Z,9.83
2022-09-03T07:04:04.914Z,9.74
2022-09-03T07:06:38.300Z,10.16
2022-09-03T07:09:09.922Z,10.31
2022-09-03T07:11:39.341Z,10.07
2022-09-03T07:14:06.324Z,10.45
2022-09-03T07:16:36.011Z,10.26
2022-09-03T07:19:04.851Z,10.28
2022-09-03T07:21:36.886Z,9.60
2022-09-03T07:24:06.022Z,9.34
2022-09-03T07:26:39.949Z,8.46
2022-09-03T07:29:08.243Z,8.33
2022-09-03T07:31:39.450Z,8.83
2022-09-03T07:34:10.472Z,9.34
2022-09-03T07:36:41.846Z,10.06
2022-09-03T07:39:11.519Z,10.88
2022-09-03T07:41:39.366Z,11.00
2022-09-03T07:44:09.257Z,11.60
2022-09-03T07:46:38.613Z,12.56
2022-09-03T07:49:06.554Z,14.78
2022-09-03T07:51:37.570Z,18.28
2022-09-03T07:54:10.998Z,21.51
2022-09-03T07:56:40.173Z,24.34
2022-09-03T07:59:08.427Z,25.92
2022-09-03T08:01:37.005Z,27.48
2022-09-03T08:04:09.510Z,29.07
2022-09-03T08:06:38.455Z,29.85
2022-09-03T08:09:08.484Z,30.95
2022-09-03T08:11:41.055Z,32.43
2022-09-03T08:14:10.861Z,33.71
2022-09-03T08:16:43.004Z,34.74
2022-09-03T08:19:11.394Z,35.37
2022-09-03T08:21:38.559Z,35.99
2022-09-03T08:24:06.617Z,36.05
2022-09-03T08:26:35.810Z,36.48
2022-09-03T08:29:03.823Z,36.01
2022-09-03T08:31:32.523Z,36.00
2022-09-03T08:34:07.049Z,36.70
2022-09-03T08:36:37.058Z,37.08
2022-09-03T08:39:10.151Z,37.59
2022-09-03T08:42:01.148Z,38.38
2022-09-03T08:44:49.523Z,37.76
2022-09-03T08:47:22.848Z,38.06
2022-09-03T08:49:56.853Z,37.34
2022-09-03T08:52:50.099Z,37.57
2022-09-03T08:55:36.792Z,36.92
2022-09-03T08:58:07.253Z,37.08
2022-09-03T09:01:13.914Z,36.68
2022-09-03T09:03:44.271Z,36.61
2022-09-03T09:06:26.632Z,36.41
2022-09-03T09:09:05.677Z,35.86
2022-09-03T09:11:45.260Z,35.71
2022-09-03T09:14:48.813Z,36.01
2022-09-03T09:17:32.734Z,36.02
2022-09-03T09:20:12.226Z,35.80
2022-09-03T09:22:47.393Z,35.45
2022-09-03T09:25:21.447Z,35.27
2022-09-03T09:27:55.164Z,35.25
2022-09-03T09:30:22.602Z,35.31
2022-09-03T09:32:49.904Z,35.70
2022-09-03T09:35:19.032Z,36.24
2022-09-03T09:37:55.178Z,35.98
2022-09-03T09:40:32.324Z,36.15
2022-09-03T09:43:16.281Z,36.31
2022-09-03T09:45:46.023Z,36.40
2022-09-03T09:48:22.945Z,35.91
2022-09-03T09:50:50.108Z,36.17
2022-09-03T09:53:21.793Z,36.04
2022-09-03T09:55:55.095Z,35.83
2022-09-03T09:58:28.476Z,35.47
2022-09-03T10:01:14.933Z,34.89
2022-09-03T10:03:55.503Z,34.86
2022-09-03T10:06:51.362Z,34.58
2022-09-03T10:09:20.982Z,35.06
2022-09-03T10:11:52.314Z,34.71
2022-09-03T10:14:24.805Z,34.11
2022-09-03T10:17:01.245Z,34.04
2022-09-03T10:19:43.747Z,34.41
2022-09-03T10:22:19.198Z,34.59
2022-09-03T10:24:58.363Z,34.19
2022-09-03T10:27:26.103Z,34.24
2022-09-03T10:29:53.618Z,34.22
2022-09-03T10:33:05.312Z,33.70
2022-09-03T10:35:41.601Z,33.64
2022-09-03T10:38:33.198Z,32.84
2022-09-03T10:41:27.058Z,33.14
2022-09-03T10:44:23.009Z,32.49
2022-09-03T10:47:13.518Z,32.56
2022-09-03T10:49:46.426Z,32.37
2022-09-03T10:52:35.553Z,32.13
2022-09-03T10:55:09.535Z,31.87
2022-09-03T10:57:37.220Z,31.99
2022-09-03T11:00:18.410Z,31.03
2022-09-03T11:03:23.517Z,30.81
2022-09-03T11:06:01.857Z,31.48
2022-09-03T11:08:39.369Z,31.95
2022-09-03T11:11:20.191Z,31.78
2022-09-03T11:14:10.883Z,31.80
2022-09-03T11:16:48.625Z,32.33
2022-09-03T11:19:24.461Z,32.83
2022-09-03T11:21:53.073Z,32.91
2022-09-03T11:24:27.058Z,33.08
2022-09-03T11:27:18.544Z,33.88
2022-09-03T11:30:04.907Z,34.41
2022-09-03T11:32:47.003Z,34.85
2022-09-03T11:35:29.451Z,34.68
2022-09-03T11:38:16.788Z,34.61
2022-09-03T11:41:22.573Z,34.03
2022-09-03T11:43:49.836Z,34.29
2022-09-03T11:46:23.486Z,34.25
2022-09-03T11:49:11.092Z,34.31
2022-09-03T11:51:42.108Z,34.23
2022-09-03T11:54:21.135Z,34.44
2022-09-03T11:56:49.874Z,34.91
2022-09-03T11:59:25.421Z,35.05
2022-09-03T12:02:15.458Z,35.55
2022-09-03T12:05:00.566Z,35.28
2022-09-03T12:07:49.030Z,34.58
2022-09-03T12:10:36.781Z,34.70
2022-09-03T12:13:16.031Z,33.85
2022-09-03T12:15:55.338Z,33.81
2022-09-03T12:18:31.305Z,33.92
2022-09-03T12:21:01.190Z,33.68
2022-09-03T12:23:30.936Z,33.68
2022-09-03T12:26:08.798Z,33.79
2022-09-03T12:28:38.750Z,33.97
2022-09-03T12:31:29.709Z,34.04
2022-09-03T12:34:09.913Z,34.60
2022-09-03T12:36:42.740Z,34.81
2022-09-03T12:39:13.126Z,34.54
2022-09-03T12:41:53.136Z,35.02
2022-09-03T12:44:35.767Z,35.30
2022-09-03T12:50:08.487Z,35.58
2022-09-03T12:52:46.617Z,35.53
2022-09-03T12:55:45.148Z,35.31
2022-09-03T12:58:17.434Z,35.49
2022-09-03T13:00:51.211Z,35.58
2022-09-03T13:03:35.903Z,35.63
2022-09-03T13:06:10.277Z,35.75
2022-09-03T13:08:50.773Z,36.26
2022-09-03T13:11:21.899Z,36.31
2022-09-03T13:14:01.627Z,36.50
2022-09-03T13:16:45.135Z,36.91
2022-09-03T13:19:31.095Z,36.89
2022-09-03T13:22:43.550Z,37.01
2022-09-03T13:25:19.809Z,36.68
2022-09-03T13:28:27.807Z,37.12
2022-09-03T13:31:23.859Z,37.15
2022-09-03T13:34:25.986Z,36.91
2022-09-03T13:37:23.383Z,36.86
2022-09-03T13:39:57.555Z,37.00
2022-09-03T13:42:37.286Z,37.11
2022-09-03T13:45:45.733Z,37.02
2022-09-03T13:48:44.699Z,37.03
2022-09-03T13:51:24.195Z,37.05
2022-09-03T13:54:13.276Z,37.02
2022-09-03T13:57:01.870Z,36.59
2022-09-03T14:00:02.266Z,36.59
2022-09-03T14:03:06.584Z,36.35
2022-09-03T14:06:07.378Z,36.09
2022-09-03T14:08:55.393Z,36.25
2022-09-03T14:11:35.272Z,36.41
2022-09-03T14:14:08.041Z,36.95
2022-09-03T14:16:40.986Z,37.80
2022-09-03T14:19:35.802Z,37.84
2022-09-03T14:22:23.453Z,37.83
2022-09-03T14:24:56.301Z,37.83
2022-09-03T14:27:29.739Z,37.60
2022-09-03T14:30:06.727Z,38.23
2022-09-03T14:32:45.224Z,37.92
2022-09-03T14:35:55.474Z,38.42
2022-09-03T14:38:57.247Z,38.43
2022-09-03T14:42:02.228Z,38.21
2022-09-03T14:45:02.166Z,38.14
2022-09-03T14:47:48.532Z,37.98
2022-09-03T14:50:40.131Z,38.16
2022-09-03T14:53:46.577Z,37.96
2022-09-03T14:56:41.189Z,37.53
2022-09-03T14:59:08.124Z,37.30
2022-09-03T15:01:39.336Z,36.89
2022-09-03T15:04:31.990Z,36.86
2022-09-03T15:07:33.096Z,37.58
2022-09-03T15:10:09.383Z,38.64
2022-09-03T15:12:45.455Z,38.43
2022-09-03T15:15:23.209Z,38.65
2022-09-03T15:18:16.399Z,38.84
2022-09-03T15:20:46.540Z,39.15
2022-09-03T15:23:47.513Z,39.55
2022-09-03T15:26:20.645Z,40.16
2022-09-03T15:29:13.914Z,40.13
2022-09-03T15:31:58.364Z,40.76
2022-09-03T15:34:36.555Z,40.69
2022-09-03T15:37:17.323Z,40.92
2022-09-03T15:39:47.340Z,41.38
2022-09-03T15:42:28.303Z,41.23
2022-09-03T15:45:02.997Z,41.16
2022-09-03T15:47:54.110Z,41.21
2022-09-03T15:50:48.734Z,41.21
2022-09-03T15:53:36.667Z,41.23
2022-09-03T15:56:23.724Z,41.36
2022-09-03T15:58:56.233Z,41.70
2022-09-03T16:01:35.236Z,41.87
2022-09-03T16:04:10.363Z,42.08
2022-09-03T16:07:24.326Z,42.49
2022-09-03T16:10:23.803Z,42.67
2022-09-03T16:13:08.749Z,42.97
2022-09-03T16:15:47.465Z,44.04
2022-09-03T16:18:25.459Z,44.04
2022-09-03T16:21:17.259Z,44.32
2022-09-03T16:23:50.890Z,44.69
2022-09-03T16:26:35.510Z,44.94
2022-09-03T16:29:13.372Z,45.59
2022-09-03T16:32:02.389Z,45.51
2022-09-03T16:34:51.676Z,46.00
2022-09-03T16:37:49.593Z,45.72
2022-09-03T16:40:31.558Z,46.06
2022-09-03T16:43:39.693Z,46.01
2022-09-03T16:46:24.510Z,46.23
2022-09-03T16:49:04.742Z,45.90
2022-09-03T16:51:43.093Z,45.68
2022-09-03T16:54:20.006Z,45.64
2022-09-03T16:57:05.702Z,45.54
2022-09-03T16:59:56.482Z,45.74
2022-09-03T17:02:40.578Z,45.30
2022-09-03T17:05:46.357Z,45.34
2022-09-03T17:08:21.306Z,45.74
2022-09-03T17:11:12.234Z,46.01
2022-09-03T17:14:04.581Z,46.24
2022-09-03T17:16:47.625Z,47.46
2022-09-03T17:19:37.233Z,47.55
2022-09-03T17:22:39.586Z,48.62
2022-09-03T17:25:40.424Z,48.20
2022-09-03T17:28:31.570Z,48.84
2022-09-03T17:31:18.050Z,49.27
2022-09-03T17:34:16.327Z,49.04
2022-09-03T17:37:21.238Z,50.02
2022-09-03T17:40:11.288Z,50.12
2022-09-03T17:42:49.719Z,50.91
2022-09-03T17:45:34.235Z,51.29
2022-09-03T17:48:13.734Z,51.46
2022-09-03T17:51:06.222Z,51.48
2022-09-03T17:54:08.562Z,51.82
2022-09-03T17:56:46.839Z,52.12
2022-09-03T17:59:20.630Z,52.27
2022-09-03T18:02:19.162Z,52.44
2022-09-03T18:04:56.532Z,52.47
2022-09-03T18:07:30.283Z,53.00
2022-09-03T18:09:58.205Z,53.24
2022-09-03T18:13:03.464Z,53.56
2022-09-03T18:15:48.437Z,53.32
2022-09-03T18:18:27.646Z,53.50
2022-09-03T18:21:29.036Z,53.73
2022-09-03T18:24:36.168Z,53.67
2022-09-03T18:27:29.058Z,53.66
2022-09-03T18:30:24.652Z,53.73
2022-09-03T18:33:10.980Z,53.89
2022-09-03T18:35:58.031Z,54.29
2022-09-03T18:38:46.854Z,54.57
2022-09-03T18:42:29.685Z,54.83
2022-09-03T18:45:49.045Z,55.19
2022-09-03T18:49:27.926Z,55.45
2022-09-03T18:52:19.661Z,55.66
2022-09-03T18:55:26.281Z,56.40
2022-09-03T18:58:30.098Z,56.37
2022-09-03T19:01:37.622Z,57.12
2022-09-03T19:04:29.374Z,57.05
2022-09-03T19:07:30.443Z,57.49
2022-09-03T19:10:21.902Z,58.27
2022-09-03T19:13:28.890Z,57.57
2022-09-03T19:16:32.821Z,58.00
2022-09-03T19:19:30.467Z,58.13
2022-09-03T19:22:27.969Z,57.89
2022-09-03T19:25:24.771Z,57.41
2022-09-03T19:28:28.582Z,57.55
2022-09-03T19:31:43.860Z,57.75
2022-09-03T19:34:54.521Z,57.45
2022-09-03T19:38:19.112Z,57.14
2022-09-03T19:41:18.150Z,56.67
2022-09-03T19:44:25.000Z,56.17
2022-09-03T19:47:17.570Z,55.93
2022-09-03T19:50:12.595Z,56.27
2022-09-03T19:53:16.602Z,55.65
2022-09-03T19:56:11.148Z,55.39
2022-09-03T19:59:01.270Z,55.03
2022-09-03T20:01:53.542Z,55.11
2022-09-03T20:04:50.821Z,54.74
2022-09-03T20:07:37.973Z,54.45
2022-09-03T20:10:22.650Z,54.11
2022-09-03T20:13:13.553Z,54.33
2022-09-03T20:15:46.624Z,54.33
2022-09-03T20:18:51.188Z,54.40
2022-09-03T20:21:25.284Z,54.52
2022-09-03T20:24:14.258Z,55.03
2022-09-03T20:27:01.217Z,54.99
2022-09-03T20:29:56.721Z,54.89
2022-09-03T20:32:57.325Z,55.43
2022-09-03T20:35:38.616Z,55.60
2022-09-03T20:38:25.765Z,55.61
2022-09-03T20:41:06.675Z,55.19
2022-09-03T20:43:51.941Z,55.51
2022-09-03T20:46:36.734Z,55.24
2022-09-03T20:49:31.465Z,55.50
2022-09-03T20:52:37.062Z,55.59
2022-09-03T20:55:08.150Z,55.86
2022-09-03T20:57:38.000Z,55.94
2022-09-03T21:00:18.623Z,56.02
2022-09-03T21:02:50.997Z,56.68
2022-09-03T21:05:38.257Z,56.40
2022-09-03T21:08:20.476Z,56.53
2022-09-03T21:10:54.921Z,56.78
2022-09-03T21:13:24.638Z,56.47
2022-09-03T21:16:00.555Z,56.87
2022-09-03T21:18:47.202Z,56.94
2022-09-03T21:21:36.052Z,56.53
2022-09-03T21:24:21.639Z,57.30
2022-09-03T21:26:54.160Z,57.15
2022-09-03T21:29:32.854Z,56.80
2022-09-03T21:32:09.350Z,56.69
2022-09-03T21:34:45.192Z,57.56
2022-09-03T21:37:14.127Z,57.84
2022-09-03T21:39:51.937Z,57.75
2022-09-03T21:42:34.378Z,57.72
2022-09-03T21:45:22.248Z,57.64
2022-09-03T21:47:58.426Z,57.95
2022-09-03T21:50:36.607Z,58.42
2022-09-03T21:53:07.551Z,58.53
2022-09-03T21:55:56.324Z,59.07
2022-09-03T21:58:41.892Z,59.25
2022-09-03T22:01:18.403Z,59.27
2022-09-03T22:03:45.563Z,59.22
2022-09-03T22:06:22.589Z,59.58
2022-09-03T22:09:04.346Z,59.42
2022-09-03T22:11:53.089Z,59.54
2022-09-03T22:14:21.781Z,59.93
2022-09-03T22:16:59.938Z,59.52
2022-09-03T22:19:28.147Z,60.19
2022-09-03T22:21:59.993Z,59.92
2022-09-03T22:25:02.839Z,59.92
2022-09-03T22:27:47.332Z,60.24
2022-09-03T22:30:21.639Z,60.33
2022-09-03T22:32:53.513Z,60.68
2022-09-03T22:35:30.817Z,60.64
2022-09-03T22:38:25.515Z,60.94
2022-09-03T22:41:20.510Z,60.94
2022-09-03T22:43:58.673Z,61.35
2022-09-03T22:46:30.544Z,61.66
2022-09-03T22:49:26.847Z,61.27
2022-09-03T22:52:26.424Z,61.64
2022-09-03T22:55:18.521Z,61.80
2022-09-03T22:58:12.304Z,61.97
2022-09-03T23:00:47.260Z,62.05
2022-09-03T23:03:34.080Z,62.50
2022-09-03T23:06:07.880Z,62.65
2022-09-03T23:08:49.941Z,62.88
2022-09-03T23:11:25.670Z,62.97
2022-09-03T23:14:15.163Z,62.78
2022-09-03T23:16:54.941Z,63.00
2022-09-03T23:19:41.097Z,63.54
2022-09-03T23:22:13.420Z,63.22
2022-09-03T23:25:05.683Z,63.78
2022-09-03T23:27:42.148Z,63.59
2022-09-03T23:30:09.593Z,63.84
2022-09-03T23:32:36.789Z,64.19
2022-09-03T23:35:11.199Z,64.27
2022-09-03T23:37:47.517Z,64.63
2022-09-03T23:40:31.470Z,64.88
2022-09-03T23:43:04.120Z,64.93
2022-09-03T23:45:53.955Z,64.79
2022-09-03T23:48:27.126Z,65.26
2022-09-03T23:50:59.921Z,65.11
2022-09-03T23:53:41.899Z,65.50
2022-09-03T23:56:40.312Z,65.41
2022-09-03T23:59:12.967Z,65.51
